createdAt,value
2017-12-02T00:00:10.826Z,43.03
2017-12-02T00:02:39.222Z,33.87
2017-12-02T00:05:07.617Z,38.33
2017-12-02T00:07:36.005Z,39.10
2017-12-02T00:10:04.423Z,46.57
2017-12-02T00:12:32.815Z,43.77
2017-12-02T00:15:01.195Z,41.77
2017-12-02T00:17:30.156Z,37.30
2017-12-02T00:19:59.315Z,44.67
2017-12-02T00:22:27.360Z,46.60
2017-12-02T00:24:55.751Z,34.60
2017-12-02T00:27:23.829Z,44.63
2017-12-02T00:29:51.876Z,40.43
2017-12-02T00:32:20.274Z,45.13
2017-12-02T00:34:48.654Z,40.00
2017-12-02T00:37:16.381Z,37.37
2017-12-02T00:39:44.768Z,35.90
2017-12-02T00:42:12.495Z,41.27
2017-12-02T00:44:41.647Z,36.90
2017-12-02T00:47:10.033Z,45.33
2017-12-02T00:49:38.468Z,37.80
2017-12-02T00:52:06.859Z,39.63
2017-12-02T00:54:35.241Z,54.13
2017-12-02T00:57:03.709Z,47.20
2017-12-02T00:59:32.101Z,50.30
2017-12-02T01:02:00.480Z,46.33
2017-12-02T01:04:28.866Z,47.27
2017-12-02T01:06:57.252Z,63.90
2017-12-02T01:09:25.635Z,58.50
2017-12-02T01:11:53.842Z,51.97
2017-12-02T01:14:22.817Z,54.67
2017-12-02T01:16:51.018Z,48.20
2017-12-02T01:19:20.179Z,48.20
2017-12-02T01:21:48.570Z,61.97
2017-12-02T01:24:16.757Z,57.33
2017-12-02T01:26:45.721Z,55.33
2017-12-02T01:29:14.104Z,58.80
2017-12-02T01:31:42.489Z,68.00
2017-12-02T01:34:10.882Z,57.57
2017-12-02T01:36:40.033Z,62.10
2017-12-02T01:39:08.419Z,59.57
2017-12-02T01:41:36.807Z,67.73
2017-12-02T01:44:05.189Z,59.97
2017-12-02T01:46:33.565Z,61.47
2017-12-02T01:49:01.963Z,60.03
2017-12-02T01:51:31.383Z,60.40
2017-12-02T01:53:59.782Z,57.00
2017-12-02T01:56:28.171Z,57.07
2017-12-02T01:58:56.557Z,73.70
2017-12-02T02:01:24.750Z,59.43
2017-12-02T02:03:53.148Z,66.87
2017-12-02T02:06:21.972Z,57.00
2017-12-02T02:08:50.350Z,59.00
2017-12-02T02:11:18.736Z,56.67
2017-12-02T02:13:47.182Z,57.17
2017-12-02T02:16:16.339Z,55.40
2017-12-02T02:18:44.726Z,55.57
2017-12-02T02:21:13.107Z,68.43
2017-12-02T02:23:41.933Z,61.33
2017-12-02T02:26:09.663Z,60.13
2017-12-02T02:28:38.050Z,62.87
2017-12-02T02:31:07.192Z,60.40
2017-12-02T02:33:35.607Z,59.27
2017-12-02T02:36:03.991Z,61.93
2017-12-02T02:38:32.371Z,61.57
2017-12-02T02:41:00.751Z,55.47
2017-12-02T02:43:29.901Z,56.27
2017-12-02T02:45:58.284Z,64.07
2017-12-02T02:48:26.672Z,67.20
2017-12-02T02:50:55.059Z,57.93
2017-12-02T02:53:23.444Z,58.60
2017-12-02T02:55:52.594Z,60.27
2017-12-02T02:58:22.166Z,57.23
2017-12-02T03:00:51.315Z,49.90
2017-12-02T03:03:19.716Z,47.40
2017-12-02T03:05:48.187Z,56.70
2017-12-02T03:08:16.567Z,56.87
2017-12-02T03:10:44.302Z,63.20
2017-12-02T03:13:12.028Z,63.20
2017-12-02T03:15:40.558Z,49.57
2017-12-02T03:18:08.281Z,53.90
2017-12-02T03:20:36.767Z,57.63
2017-12-02T03:23:04.481Z,59.90
2017-12-02T03:25:33.643Z,57.53
2017-12-02T03:28:02.139Z,63.77
2017-12-02T03:30:29.855Z,60.13
2017-12-02T03:32:58.354Z,59.83
2017-12-02T03:35:25.878Z,66.17
2017-12-02T03:37:54.698Z,54.23
2017-12-02T03:40:22.240Z,46.67
2017-12-02T03:42:50.540Z,57.80
2017-12-02T03:45:18.261Z,57.00
2017-12-02T03:47:45.985Z,42.63
2017-12-02T03:50:13.705Z,55.60
2017-12-02T03:52:43.113Z,54.40
2017-12-02T03:55:10.667Z,42.23
2017-12-02T03:57:39.169Z,37.97
2017-12-02T04:00:06.696Z,42.00
2017-12-02T04:02:35.191Z,38.97
2017-12-02T04:05:03.022Z,43.30
2017-12-02T04:07:30.743Z,36.23
2017-12-02T04:09:58.798Z,42.70
2017-12-02T04:12:26.858Z,37.37
2017-12-02T04:14:54.389Z,44.17
2017-12-02T04:17:22.126Z,31.77
2017-12-02T04:19:49.845Z,27.67
2017-12-02T04:22:17.560Z,24.30
2017-12-02T04:24:45.285Z,28.63
2017-12-02T04:27:13.011Z,24.87
2017-12-02T04:29:41.310Z,31.20
2017-12-02T04:32:09.382Z,27.37
2017-12-02T04:34:37.112Z,21.43
2017-12-02T04:37:05.594Z,22.90
2017-12-02T04:39:34.094Z,18.53
2017-12-02T04:42:01.810Z,19.13
2017-12-02T04:44:29.527Z,23.20
2017-12-02T04:46:57.609Z,17.33
2017-12-02T04:49:25.657Z,24.67
2017-12-02T04:51:54.481Z,24.00
2017-12-02T04:54:22.209Z,23.93
2017-12-02T04:56:50.692Z,26.67
2017-12-02T04:59:18.419Z,38.47
2017-12-02T05:01:46.830Z,27.77
2017-12-02T05:04:14.552Z,29.63
2017-12-02T05:06:42.606Z,30.30
2017-12-02T05:09:10.335Z,25.37
2017-12-02T05:11:38.049Z,28.30
2017-12-02T05:14:06.533Z,41.77
2017-12-02T05:16:34.599Z,30.93
2017-12-02T05:19:02.323Z,27.40
2017-12-02T05:21:30.723Z,31.77
2017-12-02T05:23:58.444Z,35.80
2017-12-02T05:26:27.649Z,31.07
2017-12-02T05:28:55.366Z,32.30
2017-12-02T05:31:23.088Z,34.60
2017-12-02T05:33:51.140Z,34.30
2017-12-02T05:36:18.862Z,28.50
2017-12-02T05:38:46.593Z,32.90
2017-12-02T05:41:14.329Z,34.63
2017-12-02T05:43:42.042Z,34.17
2017-12-02T05:46:09.785Z,35.00
2017-12-02T05:48:37.549Z,28.00
2017-12-02T05:51:05.270Z,29.37
2017-12-02T05:53:33.011Z,26.07
2017-12-02T05:56:01.498Z,32.30
2017-12-02T05:58:30.314Z,32.50
2017-12-02T06:00:58.072Z,28.90
2017-12-02T06:03:25.599Z,36.07
2017-12-02T06:05:53.134Z,29.47
2017-12-02T06:08:21.029Z,32.33
2017-12-02T06:10:49.531Z,43.53
2017-12-02T06:13:17.595Z,36.90
2017-12-02T06:15:45.895Z,37.87
2017-12-02T06:18:13.425Z,36.00
2017-12-02T06:20:40.954Z,34.37
2017-12-02T06:23:08.490Z,37.63
2017-12-02T06:25:36.535Z,45.17
2017-12-02T06:28:04.625Z,31.80
2017-12-02T06:30:32.358Z,34.30
2017-12-02T06:33:00.077Z,36.63
2017-12-02T06:35:27.801Z,33.23
2017-12-02T06:37:56.859Z,36.83
2017-12-02T06:40:24.609Z,32.73
2017-12-02T06:42:53.091Z,40.60
2017-12-02T06:45:21.607Z,40.53
2017-12-02T06:47:49.671Z,35.30
2017-12-02T06:50:17.403Z,31.00
2017-12-02T06:52:45.891Z,37.13
2017-12-02T06:55:15.222Z,34.77
2017-12-02T06:57:42.994Z,37.63
2017-12-02T07:00:10.884Z,34.77
2017-12-02T07:02:38.464Z,40.17
2017-12-02T07:05:05.993Z,36.80
2017-12-02T07:07:33.537Z,44.03
2017-12-02T07:10:01.083Z,34.60
2017-12-02T07:12:29.211Z,44.93
2017-12-02T07:14:57.420Z,33.20
2017-12-02T07:17:25.291Z,39.87
2017-12-02T07:19:52.827Z,34.23
2017-12-02T07:22:21.466Z,45.00
2017-12-02T07:24:49.348Z,37.30
2017-12-02T07:27:17.300Z,36.80
2017-12-02T07:29:45.047Z,37.03
2017-12-02T07:32:13.433Z,38.57
2017-12-02T07:34:41.485Z,43.37
2017-12-02T07:37:09.205Z,40.87
2017-12-02T07:39:37.893Z,41.00
2017-12-02T07:42:06.193Z,37.23
2017-12-02T07:44:36.824Z,41.40
2017-12-02T07:47:04.672Z,37.50
2017-12-02T07:49:33.803Z,37.77
2017-12-02T07:52:04.155Z,39.73
2017-12-02T07:54:31.997Z,35.37
2017-12-02T07:56:59.708Z,36.30
2017-12-02T07:59:28.385Z,33.13
2017-12-02T08:01:56.104Z,31.63
2017-12-02T08:04:23.810Z,34.00
2017-12-02T08:06:51.636Z,36.27
2017-12-02T08:09:19.361Z,34.07
2017-12-02T08:11:47.247Z,35.70
2017-12-02T08:14:15.110Z,36.90
2017-12-02T08:16:42.821Z,33.70
2017-12-02T08:19:10.779Z,34.17
2017-12-02T08:21:39.323Z,31.50
2017-12-02T08:24:07.041Z,34.30
2017-12-02T08:26:34.779Z,33.93
2017-12-02T08:29:02.519Z,39.70
2017-12-02T08:31:30.792Z,33.60
2017-12-02T08:33:58.955Z,38.03
2017-12-02T08:36:26.698Z,35.47
2017-12-02T08:38:55.201Z,42.23
2017-12-02T08:41:22.921Z,45.60
2017-12-02T08:43:50.653Z,38.30
2017-12-02T08:46:18.368Z,36.70
2017-12-02T08:48:47.291Z,42.83
2017-12-02T08:51:15.009Z,39.80
2017-12-02T08:53:44.123Z,30.53
2017-12-02T08:56:11.833Z,41.13
2017-12-02T08:58:42.178Z,38.20
2017-12-02T09:01:11.805Z,34.20
2017-12-02T09:03:42.187Z,30.17
2017-12-02T09:06:13.561Z,42.10
2017-12-02T09:08:42.339Z,35.57
2017-12-02T09:11:10.071Z,37.20
2017-12-02T09:13:37.815Z,47.87
2017-12-02T09:16:05.862Z,42.40
2017-12-02T09:18:33.574Z,37.30
2017-12-02T09:21:01.320Z,38.03
2017-12-02T09:23:29.736Z,33.97
2017-12-02T09:25:57.789Z,46.67
2017-12-02T09:28:27.093Z,39.23
2017-12-02T09:30:55.041Z,41.03
2017-12-02T09:33:23.093Z,40.30
2017-12-02T09:35:50.969Z,33.30
2017-12-02T09:38:18.707Z,35.70
2017-12-02T09:40:46.783Z,34.47
2017-12-02T09:43:14.509Z,37.87
2017-12-02T09:45:42.558Z,33.93
2017-12-02T09:48:11.289Z,30.10
2017-12-02T09:50:39.744Z,30.20
2017-12-02T09:53:08.098Z,36.10
2017-12-02T09:55:35.826Z,34.07
2017-12-02T09:58:03.556Z,33.70
2017-12-02T10:00:32.069Z,30.40
2017-12-02T10:03:00.105Z,35.83
2017-12-02T10:05:28.605Z,43.43
2017-12-02T10:07:56.333Z,34.33
2017-12-02T10:10:24.045Z,34.90
2017-12-02T10:12:51.776Z,35.23
2017-12-02T10:15:20.253Z,26.43
2017-12-02T10:17:48.738Z,31.80
2017-12-02T10:20:17.236Z,30.17
2017-12-02T10:22:44.766Z,29.70
2017-12-02T10:25:13.062Z,32.83
2017-12-02T10:27:41.126Z,27.57
2017-12-02T10:30:09.608Z,28.30
2017-12-02T10:32:38.098Z,31.17
2017-12-02T10:35:05.633Z,28.60
2017-12-02T10:37:34.125Z,39.30
2017-12-02T10:40:02.481Z,27.27
2017-12-02T10:42:30.149Z,31.73
2017-12-02T10:44:58.769Z,39.43
2017-12-02T10:47:26.560Z,29.57
2017-12-02T10:49:54.631Z,35.03
2017-12-02T10:52:22.157Z,33.00
2017-12-02T10:54:49.889Z,38.20
2017-12-02T10:57:17.854Z,34.23
2017-12-02T10:59:46.361Z,39.30
2017-12-02T11:02:14.708Z,34.90
2017-12-02T11:04:43.218Z,34.70
2017-12-02T11:07:11.606Z,33.50
2017-12-02T11:09:41.332Z,36.70
2017-12-02T11:12:09.742Z,36.00
2017-12-02T11:14:38.132Z,32.87
2017-12-02T11:17:06.206Z,26.30
2017-12-02T11:19:34.270Z,32.00
2017-12-02T11:22:02.668Z,31.20
2017-12-02T11:24:31.817Z,35.53
2017-12-02T11:26:59.542Z,38.90
2017-12-02T11:29:27.919Z,36.83
2017-12-02T11:31:56.296Z,39.13
2017-12-02T11:34:25.585Z,38.13
2017-12-02T11:36:54.086Z,35.87
2017-12-02T11:39:21.802Z,37.23
2017-12-02T11:41:49.862Z,29.13
2017-12-02T11:44:18.245Z,25.77
2017-12-02T11:46:46.626Z,27.67
2017-12-02T11:49:16.166Z,36.83
2017-12-02T11:51:44.552Z,35.87
2017-12-02T11:54:13.848Z,32.43
2017-12-02T11:56:42.239Z,31.70
2017-12-02T11:59:10.627Z,31.07
2017-12-02T12:01:39.014Z,36.63
2017-12-02T12:04:07.410Z,36.20
2017-12-02T12:06:35.800Z,30.60
2017-12-02T12:09:03.328Z,37.13
2017-12-02T12:11:31.524Z,30.93
2017-12-02T12:13:59.905Z,28.20
2017-12-02T12:16:28.278Z,28.13
2017-12-02T12:18:56.484Z,31.93
2017-12-02T12:21:25.452Z,31.23
2017-12-02T12:23:53.830Z,22.77
2017-12-02T12:26:22.982Z,22.00
2017-12-02T12:28:52.166Z,17.30
2017-12-02T12:31:20.551Z,18.37
2017-12-02T12:33:48.933Z,16.43
2017-12-02T12:36:18.203Z,13.93
2017-12-02T12:38:46.695Z,21.50
2017-12-02T12:41:15.656Z,25.90
2017-12-02T12:43:44.128Z,19.63
2017-12-02T12:46:12.310Z,23.53
2017-12-02T12:48:41.572Z,21.07
2017-12-02T12:51:09.974Z,20.77
2017-12-02T12:53:38.358Z,21.23
2017-12-02T12:56:06.777Z,20.77
2017-12-02T12:58:35.171Z,21.30
2017-12-02T13:01:03.559Z,19.07
2017-12-02T13:03:31.970Z,20.07
2017-12-02T13:06:01.127Z,21.60
2017-12-02T13:08:29.505Z,25.27
2017-12-02T13:10:57.905Z,25.97
2017-12-02T13:13:26.421Z,24.77
2017-12-02T13:15:55.566Z,22.57
2017-12-02T13:18:23.979Z,24.53
2017-12-02T13:20:53.132Z,23.73
2017-12-02T13:23:21.510Z,17.33
2017-12-02T13:25:49.911Z,17.87
2017-12-02T13:28:18.286Z,16.93
2017-12-02T13:30:47.448Z,17.30
2017-12-02T13:33:15.838Z,19.10
2017-12-02T13:35:44.238Z,19.03
2017-12-02T13:38:12.472Z,15.47
2017-12-02T13:40:40.734Z,17.87
2017-12-02T13:43:09.514Z,16.17
2017-12-02T13:45:37.714Z,18.10
2017-12-02T13:48:05.915Z,15.30
2017-12-02T13:50:34.309Z,17.80
2017-12-02T13:53:03.454Z,20.27
2017-12-02T13:55:31.661Z,18.33
2017-12-02T13:58:00.047Z,21.23
2017-12-02T14:00:28.925Z,17.60
2017-12-02T14:02:57.153Z,21.97
2017-12-02T14:05:25.357Z,21.10
2017-12-02T14:07:53.763Z,23.20
2017-12-02T14:10:23.061Z,22.07
2017-12-02T14:12:51.244Z,24.57
2017-12-02T14:15:19.637Z,19.20
2017-12-02T14:17:48.957Z,17.57
2017-12-02T14:20:17.338Z,17.67
2017-12-02T14:22:45.714Z,23.50
2017-12-02T14:25:14.118Z,21.73
2017-12-02T14:27:42.498Z,20.00
2017-12-02T14:30:10.546Z,23.87
2017-12-02T14:32:38.950Z,19.33
2017-12-02T14:35:07.333Z,17.73
2017-12-02T14:37:35.721Z,13.40
2017-12-02T14:40:04.121Z,12.30
2017-12-02T14:42:32.509Z,10.37
2017-12-02T14:45:01.664Z,15.60
2017-12-02T14:47:30.263Z,11.60
2017-12-02T14:49:58.647Z,15.87
2017-12-02T14:52:27.028Z,10.40
2017-12-02T14:54:55.425Z,11.17
2017-12-02T14:57:24.570Z,8.13
2017-12-02T14:59:52.967Z,8.10
2017-12-02T15:02:21.691Z,11.30
2017-12-02T15:04:50.110Z,11.67
2017-12-02T15:07:18.494Z,11.33
2017-12-02T15:09:46.890Z,12.30
2017-12-02T15:12:16.100Z,14.60
2017-12-02T15:14:44.314Z,12.87
2017-12-02T15:17:12.197Z,8.87
2017-12-02T15:19:40.399Z,13.10
2017-12-02T15:22:08.787Z,15.90
2017-12-02T15:24:37.182Z,12.17
2017-12-02T15:27:06.328Z,14.33
2017-12-02T15:29:34.709Z,13.30
2017-12-02T15:32:03.105Z,15.27
2017-12-02T15:34:31.496Z,13.70
2017-12-02T15:36:59.694Z,17.60
2017-12-02T15:39:28.667Z,18.60
2017-12-02T15:41:56.862Z,31.93
2017-12-02T15:44:25.825Z,21.47
2017-12-02T15:46:53.552Z,21.90
2017-12-02T15:49:21.954Z,34.63
2017-12-02T15:51:49.816Z,21.07
2017-12-02T15:54:17.810Z,19.20
2017-12-02T15:56:46.106Z,24.73
2017-12-02T15:59:13.854Z,26.30
2017-12-02T16:01:43.026Z,22.43
2017-12-02T16:04:11.846Z,23.43
2017-12-02T16:06:40.673Z,25.27
2017-12-02T16:09:08.746Z,27.93
2017-12-02T16:11:37.129Z,27.73
2017-12-02T16:14:05.193Z,19.93
2017-12-02T16:16:33.399Z,23.17
2017-12-02T16:19:01.454Z,28.90
2017-12-02T16:21:29.503Z,35.40
2017-12-02T16:23:57.568Z,30.23
2017-12-02T16:26:25.954Z,25.53
2017-12-02T16:28:54.358Z,28.67
2017-12-02T16:31:24.268Z,23.87
2017-12-02T16:33:52.657Z,24.03
2017-12-02T16:36:21.054Z,29.97
2017-12-02T16:38:50.221Z,23.87
2017-12-02T16:41:18.602Z,30.60
2017-12-02T16:43:46.986Z,26.53
2017-12-02T16:46:14.853Z,23.37
2017-12-02T16:48:43.281Z,28.63
2017-12-02T16:51:11.673Z,22.50
2017-12-02T16:53:40.083Z,30.93
2017-12-02T16:56:08.287Z,23.67
2017-12-02T16:58:37.511Z,33.67
2017-12-02T17:01:05.243Z,25.47
2017-12-02T17:03:34.908Z,30.43
2017-12-02T17:06:02.964Z,23.77
2017-12-02T17:08:31.352Z,27.43
2017-12-02T17:10:59.736Z,25.43
2017-12-02T17:13:28.114Z,25.90
2017-12-02T17:15:56.515Z,22.10
2017-12-02T17:18:25.834Z,29.00
2017-12-02T17:20:54.986Z,27.00
2017-12-02T17:23:23.386Z,26.13
2017-12-02T17:25:52.062Z,29.40
2017-12-02T17:28:20.722Z,20.80
2017-12-02T17:30:49.393Z,21.33
2017-12-02T17:33:17.774Z,25.77
2017-12-02T17:35:47.202Z,23.52
2017-12-02T17:38:15.874Z,27.63
2017-12-02T17:40:43.593Z,34.97
2017-12-02T17:43:12.101Z,30.27
2017-12-02T17:45:40.150Z,34.83
2017-12-02T17:48:09.790Z,22.10
2017-12-02T17:50:38.199Z,23.47
